Time;durP1;ratioP1;P1;durP2;ratioP2;P2;SDS_P1;SDS_P2;PMS_P1;PMS_P2;Temp;Humidity;BMP_temperature;BMP_pressure;BME280_temperature;BME280_humidity;BME280_pressure;Samples;Min_cycle;Max_cycle;Signal;HPM_P1;HPM_P2
2021/07/24 00:00:55;;;;;;;18.75;12.50;;;;;;;;;;5023726;28;20191;-44
2021/07/24 00:03:21;;;;;;;12.10;10.05;;;;;;;;;;5040264;28;20808;-44
2021/07/24 00:05:47;;;;;;;27.08;16.00;;;;;;;;;;5023891;28;20729;-44
2021/07/24 00:08:13;;;;;;;16.15;9.88;;;;;;;;;;5024726;28;20034;-43
2021/07/24 00:10:39;;;;;;;15.23;9.38;;;;;;;;;;5023785;28;20075;-44
2021/07/24 00:13:05;;;;;;;12.77;9.45;;;;;;;;;;5023353;28;20191;-43
2021/07/24 00:15:31;;;;;;;11.38;8.35;;;;;;;;;;5023127;28;20046;-44
2021/07/24 00:17:58;;;;;;;19.52;13.15;;;;;;;;;;5023669;28;20033;-42
2021/07/24 00:20:24;;;;;;;14.43;10.02;;;;;;;;;;5023414;28;20048;-43
2021/07/24 00:22:50;;;;;;;17.27;12.68;;;;;;;;;;5023459;28;20136;-43
2021/07/24 00:25:16;;;;;;;29.20;21.20;;;;;;;;;;5023455;28;20022;-42
2021/07/24 00:27:42;;;;;;;25.77;17.88;;;;;;;;;;5023396;28;20350;-43
2021/07/24 00:30:09;;;;;;;27.73;18.08;;;;;;;;;;5023055;28;20040;-41
2021/07/24 00:32:35;;;;;;;36.92;25.20;;;;;;;;;;5024167;28;20079;-42
2021/07/24 00:35:01;;;;;;;20.50;14.25;;;;;;;;;;5022839;28;20025;-42
2021/07/24 00:37:29;;;;;;;20.67;13.48;;;;;;;;;;5023284;28;20033;-43
2021/07/24 00:39:55;;;;;;;19.27;11.68;;;;;;;;;;5022718;28;20021;-43
2021/07/24 00:42:23;;;;;;;23.88;15.60;;;;;;;;;;5022827;28;20041;-42
2021/07/24 00:44:50;;;;;;;19.63;13.05;;;;;;;;;;5022797;28;20032;-42
2021/07/24 00:47:20;;;;;;;38.33;20.42;;;;;;;;;;5023926;28;20067;-42
2021/07/24 00:49:47;;;;;;;23.85;16.90;;;;;;;;;;5024231;28;20092;-44
2021/07/24 00:52:16;;;;;;;36.83;23.17;;;;;;;;;;5022812;28;20033;-42
2021/07/24 00:54:43;;;;;;;19.75;13.25;;;;;;;;;;5022851;28;20022;-42
2021/07/24 00:57:10;;;;;;;19.42;13.73;;;;;;;;;;5022787;28;20519;-42
2021/07/24 00:59:37;;;;;;;17.38;12.38;;;;;;;;;;5023904;28;20021;-42
2021/07/24 01:02:03;;;;;;;19.65;11.63;;;;;;;;;;5022615;28;20038;-41
2021/07/24 01:04:29;;;;;;;19.02;11.02;;;;;;;;;;5023938;28;20076;-41
2021/07/24 01:06:56;;;;;;;15.75;9.50;;;;;;;;;;5022899;28;20048;-42
2021/07/24 01:09:24;;;;;;;18.55;13.20;;;;;;;;;;5022588;28;20025;-42
2021/07/24 01:11:50;;;;;;;16.65;11.27;;;;;;;;;;5022434;28;20396;-44
2021/07/24 01:14:17;;;;;;;24.13;16.38;;;;;;;;;;5022369;28;20030;-43
2021/07/24 01:16:43;;;;;;;16.73;11.85;;;;;;;;;;5022465;28;20383;-42
2021/07/24 01:19:09;;;;;;;16.33;11.57;;;;;;;;;;5022232;28;20514;-43
2021/07/24 01:21:35;;;;;;;19.13;14.27;;;;;;;;;;5023303;28;20039;-43
2021/07/24 01:24:03;;;;;;;18.40;12.75;;;;;;;;;;5022379;28;20137;-42
2021/07/24 01:26:30;;;;;;;21.13;12.10;;;;;;;;;;5022471;28;20519;-42
2021/07/24 01:28:57;;;;;;;18.27;12.70;;;;;;;;;;5022065;28;20523;-42
2021/07/24 01:31:23;;;;;;;19.50;13.38;;;;;;;;;;5022323;28;20537;-43
2021/07/24 01:33:50;;;;;;;41.17;25.38;;;;;;;;;;5022134;28;20036;-43
2021/07/24 01:36:16;;;;;;;34.67;24.35;;;;;;;;;;5022032;28;20028;-44
2021/07/24 01:38:42;;;;;;;24.20;16.60;;;;;;;;;;5022250;28;20021;-42
2021/07/24 01:41:09;;;;;;;19.38;11.85;;;;;;;;;;5022858;28;20034;-44
2021/07/24 01:43:37;;;;;;;26.52;20.30;;;;;;;;;;5022991;28;20033;-43
2021/07/24 01:46:06;;;;;;;22.70;13.82;;;;;;;;;;5021764;28;20052;-43
2021/07/24 01:53:56;;;;;;;15.55;12.23;;;;;;;;;;5022721;28;20831;-42
2021/07/24 01:56:28;;;;;;;18.98;13.70;;;;;;;;;;5021721;28;20029;-45
2021/07/24 01:58:54;;;;;;;40.67;30.08;;;;;;;;;;5021973;28;20049;-44
2021/07/24 02:01:22;;;;;;;23.70;15.20;;;;;;;;;;5022623;28;20026;-43
2021/07/24 02:04:20;;;;;;;40.33;27.83;;;;;;;;;;5021769;28;20032;-42
2021/07/24 02:06:46;;;;;;;26.90;18.23;;;;;;;;;;4984912;28;20768;-43
2021/07/24 02:09:13;;;;;;;16.05;12.68;;;;;;;;;;4999788;28;20080;-43
2021/07/24 02:11:39;;;;;;;16.15;12.43;;;;;;;;;;5011648;28;20438;-44
2021/07/24 02:14:06;;;;;;;18.88;12.32;;;;;;;;;;5011680;28;20566;-45
2021/07/24 02:16:33;;;;;;;16.02;11.85;;;;;;;;;;5011490;28;20486;-44
2021/07/24 02:18:59;;;;;;;17.60;10.63;;;;;;;;;;4995346;28;20088;-45
2021/07/24 02:21:25;;;;;;;19.52;11.32;;;;;;;;;;5011711;28;20417;-44
2021/07/24 02:23:51;;;;;;;17.38;11.63;;;;;;;;;;5011923;28;20091;-44
2021/07/24 02:26:17;;;;;;;20.17;11.32;;;;;;;;;;5011736;28;20034;-45
2021/07/24 02:28:43;;;;;;;14.68;11.13;;;;;;;;;;5011853;28;20080;-44
2021/07/24 02:31:09;;;;;;;20.73;14.07;;;;;;;;;;5011493;28;20142;-44
2021/07/24 02:33:35;;;;;;;22.15;12.20;;;;;;;;;;5011737;28;20030;-45
2021/07/24 02:36:01;;;;;;;20.73;14.00;;;;;;;;;;5028430;28;20087;-45
2021/07/24 02:38:28;;;;;;;25.00;16.50;;;;;;;;;;5011592;28;20030;-45
2021/07/24 02:40:54;;;;;;;24.48;16.30;;;;;;;;;;5011633;28;20078;-45
2021/07/24 02:43:20;;;;;;;28.60;17.98;;;;;;;;;;5031368;28;20042;-45
2021/07/24 02:45:46;;;;;;;35.78;24.48;;;;;;;;;;5033040;28;20017;-45
2021/07/24 02:48:13;;;;;;;21.58;15.70;;;;;;;;;;5033169;28;20029;-44
2021/07/24 02:50:39;;;;;;;24.23;17.13;;;;;;;;;;5033254;28;20037;-45
2021/07/24 02:53:05;;;;;;;29.20;19.15;;;;;;;;;;5033131;28;20026;-45
2021/07/24 02:55:31;;;;;;;27.10;19.52;;;;;;;;;;5033097;28;20025;-45
2021/07/24 02:57:57;;;;;;;28.17;18.38;;;;;;;;;;5033020;28;20121;-44
2021/07/24 03:00:23;;;;;;;23.52;15.88;;;;;;;;;;5033197;28;20097;-44
2021/07/24 03:02:49;;;;;;;28.85;19.13;;;;;;;;;;5032902;28;20033;-44
2021/07/24 03:05:16;;;;;;;20.92;14.25;;;;;;;;;;5036848;28;20047;-44
2021/07/24 03:07:42;;;;;;;22.30;15.27;;;;;;;;;;5036878;28;20029;-44
2021/07/24 03:10:08;;;;;;;20.85;13.32;;;;;;;;;;5036868;28;20021;-44
2021/07/24 03:12:34;;;;;;;31.05;17.60;;;;;;;;;;5036797;28;20118;-44
2021/07/24 03:15:00;;;;;;;22.15;12.15;;;;;;;;;;5036742;28;20120;-44
2021/07/24 03:17:28;;;;;;;21.65;13.40;;;;;;;;;;5036648;28;20151;-44
2021/07/24 03:19:54;;;;;;;17.13;12.75;;;;;;;;;;5036730;28;20022;-44
2021/07/24 03:22:20;;;;;;;17.25;11.40;;;;;;;;;;5034960;28;20099;-45
2021/07/24 03:24:47;;;;;;;16.48;12.75;;;;;;;;;;5036672;28;20022;-44
2021/07/24 03:27:15;;;;;;;17.48;11.80;;;;;;;;;;5036490;28;20030;-44
2021/07/24 03:29:41;;;;;;;19.75;10.73;;;;;;;;;;5036500;28;20025;-44
2021/07/24 03:32:08;;;;;;;14.13;10.38;;;;;;;;;;5036553;28;20477;-45
2021/07/24 03:34:34;;;;;;;15.07;10.20;;;;;;;;;;5036510;28;20083;-45
2021/07/24 03:37:00;;;;;;;17.17;10.43;;;;;;;;;;5036526;28;20029;-44
2021/07/24 03:39:26;;;;;;;16.90;11.30;;;;;;;;;;5036619;28;20021;-44
2021/07/24 03:41:52;;;;;;;12.15;10.10;;;;;;;;;;5036556;28;20028;-45
2021/07/24 03:44:18;;;;;;;12.98;10.73;;;;;;;;;;5036493;28;20025;-45
2021/07/24 03:46:44;;;;;;;11.93;9.85;;;;;;;;;;5036477;28;20033;-45
2021/07/24 03:49:10;;;;;;;18.20;10.85;;;;;;;;;;5036231;28;20025;-45
2021/07/24 03:51:38;;;;;;;16.65;10.77;;;;;;;;;;5036395;28;20515;-45
2021/07/24 03:54:04;;;;;;;14.02;9.90;;;;;;;;;;5036430;28;20103;-45
2021/07/24 03:56:30;;;;;;;12.68;10.10;;;;;;;;;;5036297;28;20041;-44
2021/07/24 03:58:57;;;;;;;14.57;10.20;;;;;;;;;;5036056;28;20049;-44
2021/07/24 04:01:25;;;;;;;13.02;9.82;;;;;;;;;;5035702;28;20432;-44
2021/07/24 04:03:52;;;;;;;12.60;9.68;;;;;;;;;;5036008;28;20076;-44
2021/07/24 04:06:26;;;;;;;12.88;10.02;;;;;;;;;;5035885;28;20021;-44
2021/07/24 04:08:53;;;;;;;15.27;9.13;;;;;;;;;;5035962;28;20032;-44
2021/07/24 04:11:20;;;;;;;13.75;9.60;;;;;;;;;;5035810;28;20017;-46
2021/07/24 04:13:47;;;;;;;11.25;8.57;;;;;;;;;;5035661;28;20029;-44
2021/07/24 04:16:13;;;;;;;14.90;10.13;;;;;;;;;;5035021;28;20053;-44
2021/07/24 04:18:39;;;;;;;14.52;9.25;;;;;;;;;;5035569;28;20505;-44
2021/07/24 04:21:05;;;;;;;16.08;10.15;;;;;;;;;;5035486;28;20087;-44
2021/07/24 04:23:31;;;;;;;17.00;10.23;;;;;;;;;;5035356;28;20029;-44
2021/07/24 04:25:57;;;;;;;14.02;9.52;;;;;;;;;;5035462;28;20466;-44
2021/07/24 04:28:24;;;;;;;11.45;8.10;;;;;;;;;;5035815;28;20149;-43
2021/07/24 04:30:50;;;;;;;15.32;8.90;;;;;;;;;;5035362;28;20433;-44
2021/07/24 04:33:16;;;;;;;11.57;8.93;;;;;;;;;;5035465;28;20048;-43
2021/07/24 04:35:46;;;;;;;14.75;8.82;;;;;;;;;;5035174;28;20030;-43
2021/07/24 04:38:12;;;;;;;13.20;9.13;;;;;;;;;;5035274;28;20048;-44
2021/07/24 04:40:38;;;;;;;14.90;9.05;;;;;;;;;;5035592;28;20105;-44
2021/07/24 04:43:04;;;;;;;11.77;8.93;;;;;;;;;;5035394;28;20128;-43
2021/07/24 04:45:31;;;;;;;12.43;9.00;;;;;;;;;;5035134;28;20394;-44
2021/07/24 04:47:57;;;;;;;12.60;8.93;;;;;;;;;;5035072;28;20072;-44
2021/07/24 04:50:24;;;;;;;15.63;8.95;;;;;;;;;;5035061;28;20029;-43
2021/07/24 04:52:50;;;;;;;15.07;8.68;;;;;;;;;;5035269;28;20075;-44
2021/07/24 04:55:16;;;;;;;12.07;8.02;;;;;;;;;;5035138;28;20022;-44
2021/07/24 04:57:44;;;;;;;8.77;7.82;;;;;;;;;;5035059;28;20037;-44
2021/07/24 05:00:11;;;;;;;12.02;8.27;;;;;;;;;;5034803;28;20500;-45
2021/07/24 05:02:37;;;;;;;12.55;9.63;;;;;;;;;;5034885;28;20048;-44
2021/07/24 05:05:03;;;;;;;12.40;9.48;;;;;;;;;;5034789;28;20029;-44
2021/07/24 05:07:31;;;;;;;16.85;10.65;;;;;;;;;;5034666;28;20060;-44
2021/07/24 05:09:57;;;;;;;13.13;8.00;;;;;;;;;;5034643;28;20025;-44
2021/07/24 05:12:23;;;;;;;9.93;8.25;;;;;;;;;;5033524;28;20053;-44
2021/07/24 05:14:49;;;;;;;11.38;8.27;;;;;;;;;;5034340;28;20037;-44
2021/07/24 05:17:16;;;;;;;12.60;8.90;;;;;;;;;;5034710;28;20021;-43
2021/07/24 05:19:43;;;;;;;13.35;9.25;;;;;;;;;;5034440;28;20022;-44
2021/07/24 05:22:10;;;;;;;14.18;9.02;;;;;;;;;;5034407;28;20120;-45
2021/07/24 05:24:36;;;;;;;11.10;9.05;;;;;;;;;;5034338;28;20473;-44
2021/07/24 05:27:03;;;;;;;11.88;8.57;;;;;;;;;;5034467;28;20029;-45
2021/07/24 05:29:29;;;;;;;14.40;9.52;;;;;;;;;;5034453;28;20021;-45
2021/07/24 05:31:56;;;;;;;12.48;9.48;;;;;;;;;;5034173;28;20044;-44
2021/07/24 05:34:22;;;;;;;11.75;8.38;;;;;;;;;;5034283;28;20041;-43
2021/07/24 05:36:48;;;;;;;12.90;8.25;;;;;;;;;;5034055;28;20025;-46
2021/07/24 05:39:14;;;;;;;13.90;9.13;;;;;;;;;;5034350;28;20484;-50
2021/07/24 05:41:40;;;;;;;12.90;8.93;;;;;;;;;;5034146;28;20018;-45
2021/07/24 05:44:07;;;;;;;13.25;8.52;;;;;;;;;;5033986;28;20026;-46
2021/07/24 05:46:33;;;;;;;11.88;8.40;;;;;;;;;;5034116;28;20025;-45
2021/07/24 05:48:59;;;;;;;10.98;8.48;;;;;;;;;;5034068;28;20032;-45
2021/07/24 05:51:25;;;;;;;13.35;8.93;;;;;;;;;;5033924;28;20025;-45
2021/07/24 05:53:52;;;;;;;13.43;9.02;;;;;;;;;;5034158;28;20060;-44
2021/07/24 05:56:18;;;;;;;10.38;7.45;;;;;;;;;;5034118;28;20532;-46
2021/07/24 05:58:44;;;;;;;11.75;8.07;;;;;;;;;;5033871;28;20034;-45
2021/07/24 06:01:11;;;;;;;12.57;7.80;;;;;;;;;;5033919;28;20022;-45
2021/07/24 06:03:39;;;;;;;10.23;7.28;;;;;;;;;;5033642;28;20363;-44
2021/07/24 06:06:05;;;;;;;10.27;7.90;;;;;;;;;;5033662;28;20021;-45
2021/07/24 06:08:31;;;;;;;11.40;6.93;;;;;;;;;;5033855;28;20045;-44
2021/07/24 06:11:04;;;;;;;13.48;8.32;;;;;;;;;;5033622;28;20053;-45
2021/07/24 06:13:31;;;;;;;18.10;8.18;;;;;;;;;;5033616;28;20084;-44
2021/07/24 06:15:58;;;;;;;11.35;8.00;;;;;;;;;;5033212;28;20046;-45
2021/07/24 06:18:24;;;;;;;9.70;7.60;;;;;;;;;;5033452;28;20096;-45
2021/07/24 06:20:50;;;;;;;13.27;7.97;;;;;;;;;;5033359;28;20105;-45
2021/07/24 06:23:17;;;;;;;9.50;7.07;;;;;;;;;;5033476;28;20038;-44
2021/07/24 06:25:43;;;;;;;11.88;8.07;;;;;;;;;;5033659;28;20096;-44
2021/07/24 06:28:10;;;;;;;11.40;7.15;;;;;;;;;;5033379;28;20064;-44
2021/07/24 06:30:36;;;;;;;11.10;7.18;;;;;;;;;;5033440;28;20022;-44
2021/07/24 06:33:02;;;;;;;16.85;7.38;;;;;;;;;;5033425;28;20026;-44
2021/07/24 06:35:28;;;;;;;9.05;6.75;;;;;;;;;;5033219;28;20025;-45
2021/07/24 06:37:54;;;;;;;11.40;7.25;;;;;;;;;;5034159;28;20162;-45
2021/07/24 06:40:22;;;;;;;8.40;6.57;;;;;;;;;;5040197;28;20516;-45
2021/07/24 06:42:49;;;;;;;8.85;6.95;;;;;;;;;;5039769;28;20484;-45
2021/07/24 06:45:15;;;;;;;11.30;6.70;;;;;;;;;;5039735;28;20068;-44
2021/07/24 06:47:43;;;;;;;8.50;6.05;;;;;;;;;;5039789;28;20041;-44
2021/07/24 06:50:09;;;;;;;7.80;5.70;;;;;;;;;;5039680;28;20022;-45
2021/07/24 06:52:35;;;;;;;10.30;6.65;;;;;;;;;;5039887;28;20567;-45
2021/07/24 06:55:01;;;;;;;12.60;6.28;;;;;;;;;;5039849;28;20413;-46
2021/07/24 06:57:27;;;;;;;9.70;6.22;;;;;;;;;;5039914;28;20025;-47
2021/07/24 06:59:54;;;;;;;10.80;6.97;;;;;;;;;;5039752;28;20148;-46
2021/07/24 07:02:20;;;;;;;10.48;6.57;;;;;;;;;;5039710;28;20029;-46
2021/07/24 07:04:46;;;;;;;10.32;6.30;;;;;;;;;;5039655;28;20504;-45
2021/07/24 07:07:12;;;;;;;9.45;6.85;;;;;;;;;;5039623;28;20049;-45
2021/07/24 07:09:38;;;;;;;9.23;6.30;;;;;;;;;;5039634;28;20473;-44
2021/07/24 07:12:04;;;;;;;8.80;6.30;;;;;;;;;;5039846;28;20038;-45
2021/07/24 07:14:30;;;;;;;9.15;5.85;;;;;;;;;;5039586;28;20513;-44
2021/07/24 07:16:56;;;;;;;8.35;6.32;;;;;;;;;;5039488;28;20038;-44
2021/07/24 07:19:22;;;;;;;9.02;5.97;;;;;;;;;;5039485;28;20060;-45
2021/07/24 07:21:49;;;;;;;13.05;6.22;;;;;;;;;;5039294;28;20032;-44
2021/07/24 07:24:16;;;;;;;7.50;6.35;;;;;;;;;;5039742;28;20358;-45
2021/07/24 07:26:43;;;;;;;9.15;6.53;;;;;;;;;;5039384;28;20054;-46
2021/07/24 07:29:09;;;;;;;9.10;6.00;;;;;;;;;;5039487;28;20493;-45
2021/07/24 07:31:36;;;;;;;9.57;6.75;;;;;;;;;;5039502;28;20036;-45
2021/07/24 07:34:03;;;;;;;18.98;11.27;;;;;;;;;;5039362;28;20026;-46
2021/07/24 07:36:29;;;;;;;10.70;6.43;;;;;;;;;;5039535;28;20017;-45
2021/07/24 07:38:55;;;;;;;8.50;6.25;;;;;;;;;;5039433;28;20033;-45
2021/07/24 07:41:21;;;;;;;7.57;6.13;;;;;;;;;;5039426;28;20105;-45
2021/07/24 07:43:48;;;;;;;12.48;6.13;;;;;;;;;;5039372;28;20061;-45
2021/07/24 07:46:14;;;;;;;7.85;6.10;;;;;;;;;;5037686;28;20488;-45
2021/07/24 07:48:40;;;;;;;7.15;6.43;;;;;;;;;;5039443;28;20044;-45
2021/07/24 07:51:07;;;;;;;7.38;5.85;;;;;;;;;;5035270;28;20492;-45
2021/07/24 07:53:33;;;;;;;9.25;6.43;;;;;;;;;;5036112;28;20028;-43
2021/07/24 07:56:00;;;;;;;10.02;6.47;;;;;;;;;;5036264;28;20092;-46
2021/07/24 07:58:26;;;;;;;11.18;7.05;;;;;;;;;;5036408;28;20030;-45
2021/07/24 08:00:52;;;;;;;9.63;6.10;;;;;;;;;;5036094;28;20033;-46
2021/07/24 08:03:20;;;;;;;9.98;6.53;;;;;;;;;;5036177;28;20147;-45
2021/07/24 08:05:46;;;;;;;10.05;6.28;;;;;;;;;;5035777;28;20027;-45
2021/07/24 08:08:14;;;;;;;7.43;5.40;;;;;;;;;;5036499;28;20041;-46
2021/07/24 08:10:40;;;;;;;8.88;5.72;;;;;;;;;;5036135;28;20401;-46
2021/07/24 08:13:11;;;;;;;10.80;6.13;;;;;;;;;;5036195;28;20031;-46
2021/07/24 08:15:37;;;;;;;7.03;5.70;;;;;;;;;;5033885;28;20030;-44
2021/07/24 08:18:03;;;;;;;7.25;5.10;;;;;;;;;;5035752;28;20129;-44
2021/07/24 08:20:29;;;;;;;6.93;5.25;;;;;;;;;;5035534;28;20061;-45
2021/07/24 08:22:55;;;;;;;8.10;5.35;;;;;;;;;;5035705;28;20072;-44
2021/07/24 08:25:21;;;;;;;12.15;5.43;;;;;;;;;;5035666;28;20067;-45
2021/07/24 08:27:47;;;;;;;7.97;5.40;;;;;;;;;;5035570;28;20037;-45
2021/07/24 08:30:13;;;;;;;8.52;5.53;;;;;;;;;;5035436;28;20029;-46
2021/07/24 08:32:39;;;;;;;8.93;5.30;;;;;;;;;;5037232;28;20029;-46
2021/07/24 08:35:06;;;;;;;6.60;4.50;;;;;;;;;;5055003;28;20060;-46
2021/07/24 08:37:32;;;;;;;7.00;4.82;;;;;;;;;;5051827;28;20029;-44
2021/07/24 08:39:58;;;;;;;43.72;32.78;;;;;;;;;;5054531;28;20052;-45
2021/07/24 08:42:41;;;;;;;11.43;6.90;;;;;;;;;;5054386;28;20041;-42
2021/07/24 08:45:13;;;;;;;33.67;24.52;;;;;;;;;;5052974;28;20047;-45
2021/07/24 08:47:40;;;;;;;13.02;8.18;;;;;;;;;;5054546;28;20108;-45
2021/07/24 08:50:08;;;;;;;5.75;4.93;;;;;;;;;;5054257;28;20032;-43
2021/07/24 08:52:34;;;;;;;10.27;8.27;;;;;;;;;;5054233;28;20040;-45
2021/07/24 08:55:01;;;;;;;16.83;10.18;;;;;;;;;;5054376;28;20075;-43
2021/07/24 08:57:34;;;;;;;13.15;9.05;;;;;;;;;;5054194;28;20462;-42
2021/07/24 09:00:13;;;;;;;18.40;12.20;;;;;;;;;;5051899;28;20032;-42
2021/07/24 09:02:43;;;;;;;14.05;10.88;;;;;;;;;;5053562;28;20381;-43
2021/07/24 09:05:13;;;;;;;9.27;6.40;;;;;;;;;;5054078;28;20057;-46
2021/07/24 09:07:41;;;;;;;7.28;5.25;;;;;;;;;;5054211;28;20043;-44
2021/07/24 09:10:08;;;;;;;4.40;3.80;;;;;;;;;;5054076;28;20363;-44
2021/07/24 09:12:35;;;;;;;7.60;4.13;;;;;;;;;;5054007;28;20473;-45
2021/07/24 09:15:02;;;;;;;6.80;4.38;;;;;;;;;;5053938;28;20132;-44
2021/07/24 09:17:28;;;;;;;5.57;4.05;;;;;;;;;;5054017;28;20051;-43
2021/07/24 09:19:54;;;;;;;4.97;4.20;;;;;;;;;;5054488;28;20090;-43
2021/07/24 09:22:26;;;;;;;8.18;4.00;;;;;;;;;;5054624;28;20059;-45
2021/07/24 09:25:07;;;;;;;4.78;3.85;;;;;;;;;;5054721;28;20484;-43
2021/07/24 09:27:34;;;;;;;4.47;3.97;;;;;;;;;;5054337;28;20071;-44
2021/07/24 09:30:01;;;;;;;6.20;3.75;;;;;;;;;;5054401;28;20025;-43
2021/07/24 09:32:28;;;;;;;4.40;3.83;;;;;;;;;;5054394;28;20033;-43
2021/07/24 09:34:54;;;;;;;4.63;3.72;;;;;;;;;;5054205;28;20040;-43
2021/07/24 09:37:27;;;;;;;5.78;3.85;;;;;;;;;;5054279;28;20496;-43
2021/07/24 09:39:58;;;;;;;8.07;3.58;;;;;;;;;;5054098;28;20108;-43
2021/07/24 09:42:33;;;;;;;6.32;4.20;;;;;;;;;;5053949;28;20040;-43
2021/07/24 09:45:09;;;;;;;7.70;4.07;;;;;;;;;;5054151;28;20032;-43
2021/07/24 09:47:35;;;;;;;6.38;3.85;;;;;;;;;;5053914;28;20116;-43
2021/07/24 09:50:11;;;;;;;6.72;4.28;;;;;;;;;;5053988;28;20035;-49
2021/07/24 09:52:47;;;;;;;7.32;3.85;;;;;;;;;;5053962;28;20036;-43
2021/07/24 09:55:17;;;;;;;4.75;3.85;;;;;;;;;;5053547;28;20036;-43
2021/07/24 09:57:44;;;;;;;5.07;3.95;;;;;;;;;;5054160;28;20083;-43
2021/07/24 10:00:23;;;;;;;6.80;4.40;;;;;;;;;;5053848;28;20051;-43
2021/07/24 10:02:56;;;;;;;7.38;3.97;;;;;;;;;;5053751;28;20033;-43
2021/07/24 10:05:23;;;;;;;5.05;4.15;;;;;;;;;;5053660;28;20025;-45
2021/07/24 10:07:50;;;;;;;5.70;3.63;;;;;;;;;;5053581;28;20028;-44
2021/07/24 10:10:17;;;;;;;5.90;4.00;;;;;;;;;;5053769;28;20051;-42
2021/07/24 10:12:43;;;;;;;6.35;4.00;;;;;;;;;;5053105;28;20500;-43
2021/07/24 10:15:11;;;;;;;5.40;4.20;;;;;;;;;;5053193;28;20056;-43
2021/07/24 10:17:38;;;;;;;7.13;3.92;;;;;;;;;;5053291;28;20037;-43
2021/07/24 10:20:06;;;;;;;5.88;3.42;;;;;;;;;;5053605;28;20029;-43
2021/07/24 10:22:32;;;;;;;6.18;3.95;;;;;;;;;;5053164;28;20025;-42
2021/07/24 10:24:59;;;;;;;10.05;3.85;;;;;;;;;;5053235;28;20491;-43
2021/07/24 10:27:28;;;;;;;5.78;3.60;;;;;;;;;;5053398;28;20025;-43
2021/07/24 10:30:02;;;;;;;4.75;3.95;;;;;;;;;;5053593;28;20480;-44
2021/07/24 10:32:30;;;;;;;5.95;3.47;;;;;;;;;;5053351;28;20017;-43
2021/07/24 10:34:56;;;;;;;5.35;3.63;;;;;;;;;;5053401;28;20391;-43
2021/07/24 10:37:39;;;;;;;5.35;3.55;;;;;;;;;;5053275;28;20111;-43
2021/07/24 10:42:53;;;;;;;8.63;4.00;;;;;;;;;;5053326;28;20037;-43
2021/07/24 10:45:36;;;;;;;5.95;3.35;;;;;;;;;;5053377;28;20034;-45
2021/07/24 10:48:21;;;;;;;8.35;3.70;;;;;;;;;;5053211;28;20037;-44
2021/07/24 10:50:53;;;;;;;6.63;4.07;;;;;;;;;;5053695;28;20477;-43
2021/07/24 10:53:20;;;;;;;5.53;4.03;;;;;;;;;;5053179;28;20029;-42
2021/07/24 10:55:47;;;;;;;4.65;3.85;;;;;;;;;;5053330;28;20074;-42
2021/07/24 10:58:14;;;;;;;6.35;4.00;;;;;;;;;;5053009;28;20037;-44
2021/07/24 11:00:50;;;;;;;5.28;4.00;;;;;;;;;;5053068;28;20017;-45
2021/07/24 11:03:30;;;;;;;6.35;4.50;;;;;;;;;;5052896;28;20040;-44
2021/07/24 11:05:56;;;;;;;5.25;4.45;;;;;;;;;;5053206;28;20021;-44
2021/07/24 11:08:40;;;;;;;6.40;4.25;;;;;;;;;;5053245;28;20013;-41
2021/07/24 11:11:09;;;;;;;6.43;3.80;;;;;;;;;;5053083;28;20017;-45
2021/07/24 11:13:48;;;;;;;7.32;4.47;;;;;;;;;;5052884;28;20028;-44
2021/07/24 11:16:14;;;;;;;7.57;3.97;;;;;;;;;;5052701;28;20045;-44
2021/07/24 11:18:40;;;;;;;5.97;4.05;;;;;;;;;;5052894;28;20401;-44
2021/07/24 11:21:07;;;;;;;4.93;3.72;;;;;;;;;;5052952;28;20044;-44
2021/07/24 11:23:53;;;;;;;6.90;3.88;;;;;;;;;;5052700;28;20037;-44
2021/07/24 11:26:19;;;;;;;5.45;4.18;;;;;;;;;;5056894;28;20119;-43
2021/07/24 11:28:48;;;;;;;4.70;4.20;;;;;;;;;;5056423;28;20060;-43
2021/07/24 11:31:19;;;;;;;6.85;4.35;;;;;;;;;;5056671;28;20033;-44
2021/07/24 11:33:45;;;;;;;;;;;;;;;;;;5056792;28;20033;-42
2021/07/24 11:36:11;;;;;;;5.50;4.25;;;;;;;;;;5056466;28;19905;-43
2021/07/24 11:38:37;;;;;;;5.32;4.30;;;;;;;;;;5056443;28;20101;-44
2021/07/24 11:41:07;;;;;;;5.22;4.30;;;;;;;;;;5056559;28;20083;-44
2021/07/24 11:43:34;;;;;;;9.43;4.32;;;;;;;;;;5056284;28;20451;-45
2021/07/24 11:46:01;;;;;;;4.65;3.45;;;;;;;;;;5056156;28;20025;-44
2021/07/24 11:48:27;;;;;;;8.57;4.53;;;;;;;;;;5056018;28;20435;-45
2021/07/24 11:51:00;;;;;;;6.63;4.85;;;;;;;;;;5056237;28;20017;-44
2021/07/24 11:53:27;;;;;;;9.23;4.18;;;;;;;;;;5056098;28;20031;-45
2021/07/24 11:55:53;;;;;;;8.13;4.50;;;;;;;;;;5056312;28;20096;-44
2021/07/24 11:58:19;;;;;;;5.82;4.40;;;;;;;;;;5056114;28;20385;-44
2021/07/24 12:00:49;;;;;;;7.20;4.43;;;;;;;;;;5055987;28;20025;-44
2021/07/24 12:03:23;;;;;;;7.97;4.17;;;;;;;;;;5055803;28;20065;-44
2021/07/24 12:05:50;;;;;;;6.25;4.25;;;;;;;;;;5054971;28;20331;-41
2021/07/24 12:08:17;;;;;;;7.63;4.72;;;;;;;;;;5047149;28;20512;-44
2021/07/24 12:10:44;;;;;;;5.13;4.50;;;;;;;;;;5035757;28;20497;-45
2021/07/24 12:13:11;;;;;;;11.23;5.93;;;;;;;;;;5035807;28;20025;-41
2021/07/24 12:15:56;;;;;;;6.47;4.82;;;;;;;;;;5035397;28;20053;-44
2021/07/24 12:18:22;;;;;;;7.47;4.85;;;;;;;;;;5035531;28;20525;-42
2021/07/24 12:20:52;;;;;;;8.93;4.70;;;;;;;;;;5035798;28;20034;-44
2021/07/24 12:23:21;;;;;;;7.97;5.65;;;;;;;;;;5035562;28;20036;-44
2021/07/24 12:26:08;;;;;;;8.23;4.97;;;;;;;;;;5035411;28;20025;-45
2021/07/24 12:28:34;;;;;;;9.15;4.68;;;;;;;;;;5034728;28;20080;-41
2021/07/24 12:31:19;;;;;;;8.50;4.70;;;;;;;;;;5035349;28;20026;-44
2021/07/24 12:33:46;;;;;;;7.80;5.18;;;;;;;;;;5035335;28;20075;-42
2021/07/24 12:36:12;;;;;;;6.57;4.97;;;;;;;;;;5034592;28;20024;-43
2021/07/24 12:38:39;;;;;;;7.60;4.80;;;;;;;;;;5043704;28;20025;-42
2021/07/24 12:41:05;;;;;;;14.10;10.95;;;;;;;;;;5054875;28;20028;-42
2021/07/24 12:43:36;;;;;;;8.75;5.00;;;;;;;;;;5055021;28;20037;-43
2021/07/24 12:46:16;;;;;;;7.93;5.43;;;;;;;;;;5054767;28;20037;-42
2021/07/24 12:48:46;;;;;;;6.37;5.07;;;;;;;;;;5054896;28;20029;-43
2021/07/24 12:51:17;;;;;;;5.88;4.63;;;;;;;;;;5054854;28;20250;-43
2021/07/24 12:53:48;;;;;;;6.25;4.38;;;;;;;;;;5054783;28;20477;-44
2021/07/24 12:56:14;;;;;;;6.90;4.63;;;;;;;;;;5054889;28;20025;-43
2021/07/24 12:58:40;;;;;;;6.72;4.90;;;;;;;;;;5054754;28;20466;-43
2021/07/24 13:01:07;;;;;;;6.90;5.20;;;;;;;;;;5054720;28;20024;-44
2021/07/24 13:03:34;;;;;;;8.15;5.13;;;;;;;;;;5054320;28;20079;-42
2021/07/24 13:06:00;;;;;;;6.75;4.70;;;;;;;;;;5054742;28;20097;-44
2021/07/24 13:08:26;;;;;;;8.15;4.80;;;;;;;;;;5054291;28;20025;-43
2021/07/24 13:10:52;;;;;;;5.78;4.50;;;;;;;;;;5054543;28;20024;-44
2021/07/24 13:13:18;;;;;;;8.50;4.80;;;;;;;;;;5054491;28;20108;-44
2021/07/24 13:15:44;;;;;;;7.47;4.60;;;;;;;;;;5054186;28;20052;-41
2021/07/24 13:18:11;;;;;;;6.68;4.90;;;;;;;;;;5054368;28;20025;-42
2021/07/24 13:20:37;;;;;;;9.32;5.20;;;;;;;;;;5054262;28;20052;-41
2021/07/24 13:23:03;;;;;;;5.95;5.03;;;;;;;;;;5054062;28;20033;-42
2021/07/24 13:28:14;;;;;;;8.57;4.78;;;;;;;;;;5054137;28;20382;-45
2021/07/24 13:30:40;;;;;;;6.65;4.75;;;;;;;;;;5054118;28;20107;-45
2021/07/24 13:33:06;;;;;;;6.68;4.63;;;;;;;;;;5054017;28;20480;-43
2021/07/24 13:35:32;;;;;;;6.38;4.65;;;;;;;;;;5053829;28;20056;-43
2021/07/24 13:38:01;;;;;;;6.75;4.72;;;;;;;;;;5053792;28;20035;-44
2021/07/24 13:40:27;;;;;;;8.25;4.88;;;;;;;;;;5053977;28;20025;-46
2021/07/24 13:42:53;;;;;;;9.25;5.22;;;;;;;;;;5053655;28;20040;-43
2021/07/24 13:45:19;;;;;;;7.47;5.05;;;;;;;;;;5053796;28;20062;-42
2021/07/24 13:47:45;;;;;;;9.05;4.97;;;;;;;;;;5052961;28;20044;-43
2021/07/24 13:50:11;;;;;;;6.97;4.78;;;;;;;;;;5053653;28;20064;-45
2021/07/24 13:52:38;;;;;;;6.75;4.38;;;;;;;;;;5053950;28;20730;-44
2021/07/24 13:55:08;;;;;;;6.15;4.28;;;;;;;;;;5054018;28;20032;-45
2021/07/24 13:57:37;;;;;;;8.02;4.80;;;;;;;;;;5053957;28;20381;-45
2021/07/24 14:00:07;;;;;;;7.82;4.65;;;;;;;;;;5053534;28;20029;-44
2021/07/24 14:02:34;;;;;;;10.07;5.18;;;;;;;;;;5053272;28;20052;-44
2021/07/24 14:05:00;;;;;;;9.63;4.85;;;;;;;;;;5053413;28;20021;-42
2021/07/24 14:07:26;;;;;;;7.25;5.40;;;;;;;;;;5053610;28;20021;-45
2021/07/24 14:09:57;;;;;;;6.60;4.70;;;;;;;;;;5053302;28;20025;-44
2021/07/24 14:12:23;;;;;;;7.40;4.38;;;;;;;;;;5053455;28;20021;-45
2021/07/24 14:14:49;;;;;;;6.47;4.90;;;;;;;;;;5053207;28;20025;-45
2021/07/24 14:17:16;;;;;;;7.70;5.13;;;;;;;;;;5053251;28;20036;-44
2021/07/24 14:19:42;;;;;;;7.63;5.10;;;;;;;;;;5053190;28;20021;-43
2021/07/24 14:22:08;;;;;;;6.53;4.47;;;;;;;;;;5053201;28;20478;-44
2021/07/24 14:24:34;;;;;;;7.13;4.63;;;;;;;;;;5053249;28;20033;-43
2021/07/24 14:27:00;;;;;;;6.93;5.47;;;;;;;;;;5053235;28;20059;-44
2021/07/24 14:29:26;;;;;;;8.45;5.53;;;;;;;;;;5053398;28;20032;-42
2021/07/24 14:31:52;;;;;;;6.55;4.75;;;;;;;;;;5053112;28;20473;-43
2021/07/24 14:34:18;;;;;;;10.15;4.80;;;;;;;;;;5053070;28;20389;-44
2021/07/24 14:36:44;;;;;;;7.93;5.10;;;;;;;;;;5053032;28;20560;-43
2021/07/24 14:39:14;;;;;;;6.72;4.72;;;;;;;;;;5053040;28;20021;-43
2021/07/24 14:41:41;;;;;;;12.70;5.28;;;;;;;;;;5053095;28;20028;-43
2021/07/24 14:44:07;;;;;;;7.57;5.43;;;;;;;;;;5052840;28;20532;-44
2021/07/24 14:46:33;;;;;;;7.18;5.30;;;;;;;;;;5053010;28;20053;-44